createdAt,value
2016-07-26T00:00:01.357Z,23.13
2016-07-26T00:02:16.347Z,23.1
2016-07-26T00:03:01.447Z,23.1
2016-07-26T00:04:01.487Z,23.12
2016-07-26T00:05:01.507Z,23.01
2016-07-26T00:06:02.232Z,22.98
2016-07-26T00:07:01.571Z,23
2016-07-26T00:08:01.596Z,22.97
2016-07-26T00:09:01.623Z,22.92
2016-07-26T00:10:01.654Z,22.95
2016-07-26T00:11:01.679Z,22.92
2016-07-26T00:12:01.707Z,22.97
2016-07-26T00:13:01.750Z,23
2016-07-26T00:14:01.761Z,22.85
2016-07-26T00:15:16.723Z,22.83
2016-07-26T00:17:01.860Z,22.9
2016-07-26T00:18:16.807Z,22.8
2016-07-26T00:19:01.909Z,22.77
2016-07-26T00:21:01.967Z,22.58
2016-07-26T00:22:02.000Z,22.47
2016-07-26T00:23:02.024Z,22.47
2016-07-26T00:24:02.053Z,22.4
2016-07-26T00:25:02.097Z,22.47
2016-07-26T00:26:02.115Z,22.45
2016-07-26T00:27:02.193Z,22.45
2016-07-26T00:28:02.178Z,22.47
2016-07-26T00:29:02.203Z,22.43
2016-07-26T00:30:02.226Z,22.42
2016-07-26T00:31:02.258Z,22.47
2016-07-26T00:32:02.983Z,22.52
2016-07-26T00:33:02.315Z,22.46
2016-07-26T00:34:17.275Z,22.4
2016-07-26T00:35:02.383Z,22.47
2016-07-26T00:36:02.410Z,22.31
2016-07-26T00:37:02.436Z,22.33
2016-07-26T00:38:02.462Z,22.3
2016-07-26T00:39:02.485Z,22.4
2016-07-26T00:40:02.524Z,22.37
2016-07-26T00:41:02.599Z,22.35
2016-07-26T00:42:02.572Z,22.27
2016-07-26T00:43:02.607Z,22.21
2016-07-26T00:44:02.632Z,22.27
2016-07-26T00:45:02.667Z,22.17
2016-07-26T00:46:02.689Z,22.14
2016-07-26T00:47:02.722Z,22.03
2016-07-26T00:49:02.780Z,22.05
2016-07-26T00:50:17.730Z,22.09
2016-07-26T00:51:02.845Z,22.05
2016-07-26T00:52:02.860Z,21.92
2016-07-26T00:53:02.890Z,21.92
2016-07-26T00:54:02.917Z,21.9
2016-07-26T00:55:02.949Z,21.91
2016-07-26T00:56:17.914Z,21.88
2016-07-26T00:57:03.012Z,21.99
2016-07-26T00:58:03.035Z,21.98
2016-07-26T01:00:03.102Z,21.96
2016-07-26T01:01:03.127Z,21.82
2016-07-26T01:02:03.151Z,21.83
2016-07-26T01:03:03.176Z,21.84
2016-07-26T01:04:18.133Z,21.84
2016-07-26T01:05:18.164Z,21.82
2016-07-26T01:06:03.264Z,21.83
2016-07-26T01:07:03.295Z,21.88
2016-07-26T01:08:03.330Z,21.8
2016-07-26T01:09:03.351Z,21.92
2016-07-26T01:10:03.384Z,21.88
2016-07-26T01:11:03.402Z,21.84
2016-07-26T01:12:03.440Z,21.84
2016-07-26T01:13:03.470Z,21.8
2016-07-26T01:14:03.496Z,21.79
2016-07-26T01:15:03.522Z,21.67
2016-07-26T01:16:03.550Z,21.68
2016-07-26T01:17:03.579Z,21.71
2016-07-26T01:18:03.606Z,21.56
2016-07-26T01:19:03.634Z,21.64
2016-07-26T01:20:04.360Z,21.65
2016-07-26T01:21:03.694Z,21.58
2016-07-26T01:22:03.717Z,21.53
2016-07-26T01:23:03.748Z,21.58
2016-07-26T01:24:03.779Z,21.54
2016-07-26T01:25:03.810Z,21.62
2016-07-26T01:26:03.883Z,21.59
2016-07-26T01:27:04.566Z,21.61
2016-07-26T01:28:03.898Z,21.62
2016-07-26T01:29:03.971Z,21.67
2016-07-26T01:30:03.949Z,21.56
2016-07-26T01:32:04.009Z,21.62
2016-07-26T01:33:04.034Z,21.65
2016-07-26T01:34:18.992Z,21.58
2016-07-26T01:37:19.075Z,21.64
2016-07-26T01:38:04.187Z,21.49
2016-07-26T01:39:04.225Z,21.49
2016-07-26T01:40:04.236Z,21.44
2016-07-26T01:41:04.267Z,21.47
2016-07-26T01:42:04.298Z,21.58
2016-07-26T01:43:04.324Z,21.44
2016-07-26T01:44:04.405Z,21.49
2016-07-26T01:45:04.376Z,21.56
2016-07-26T01:46:04.408Z,21.46
2016-07-26T01:47:04.435Z,21.42
2016-07-26T01:48:04.464Z,21.37
2016-07-26T01:49:04.494Z,21.35
2016-07-26T01:50:04.537Z,21.34
2016-07-26T01:51:04.595Z,21.35
2016-07-26T01:52:04.582Z,21.5
2016-07-26T01:53:19.528Z,21.42
2016-07-26T01:54:04.636Z,21.44
2016-07-26T01:55:04.663Z,21.46
2016-07-26T01:56:04.688Z,21.34
2016-07-26T01:57:04.725Z,21.38
2016-07-26T01:58:04.753Z,21.44
2016-07-26T01:59:05.474Z,21.32
2016-07-26T02:00:04.802Z,21.42
2016-07-26T02:01:04.842Z,21.42
2016-07-26T02:02:04.857Z,21.42
2016-07-26T02:03:04.893Z,21.32
2016-07-26T02:04:04.921Z,21.32
2016-07-26T02:05:05.650Z,21.29
2016-07-26T02:06:04.979Z,21.31
2016-07-26T02:08:05.035Z,21.32
2016-07-26T02:09:19.987Z,21.28
2016-07-26T02:10:05.090Z,21.25
2016-07-26T02:11:05.123Z,21.14
2016-07-26T02:12:05.151Z,21.1
2016-07-26T02:13:05.170Z,21.06
2016-07-26T02:14:05.203Z,21.13
2016-07-26T02:15:05.232Z,21.21
2016-07-26T02:16:05.266Z,21.21
2016-07-26T02:17:05.284Z,21.31
2016-07-26T02:18:05.317Z,21.29
2016-07-26T02:19:06.170Z,21.31
2016-07-26T02:20:05.373Z,21.35
2016-07-26T02:21:05.400Z,21.28
2016-07-26T02:22:20.357Z,21.28
2016-07-26T02:23:05.457Z,21.34
2016-07-26T02:24:05.487Z,21.31
2016-07-26T02:25:20.435Z,21.32
2016-07-26T02:26:20.464Z,21.31
2016-07-26T02:27:20.494Z,21.34
2016-07-26T02:28:05.595Z,21.34
2016-07-26T02:29:05.627Z,21.29
2016-07-26T02:30:05.660Z,21.24
2016-07-26T02:31:05.736Z,21.21
2016-07-26T02:32:05.711Z,21.32
2016-07-26T02:33:05.744Z,21.31
2016-07-26T02:35:05.798Z,21.31
2016-07-26T02:36:06.523Z,21.37
2016-07-26T02:37:05.848Z,21.38
2016-07-26T02:38:20.808Z,21.32
2016-07-26T02:39:05.963Z,21.42
2016-07-26T02:40:20.859Z,21.32
2016-07-26T02:41:20.889Z,21.37
2016-07-26T02:42:05.995Z,21.37
2016-07-26T02:43:06.023Z,21.34
2016-07-26T02:44:06.049Z,21.38
2016-07-26T02:45:06.082Z,21.43
2016-07-26T02:46:06.111Z,21.37
2016-07-26T02:47:06.192Z,21.32
2016-07-26T02:49:07.010Z,21.37
2016-07-26T02:50:06.220Z,21.43
2016-07-26T02:51:06.251Z,21.32
2016-07-26T02:52:06.272Z,21.24
2016-07-26T02:53:06.307Z,21.29
2016-07-26T02:54:06.328Z,21.28
2016-07-26T02:55:06.361Z,21.34
2016-07-26T02:56:06.387Z,21.34
2016-07-26T02:57:06.423Z,21.38
2016-07-26T02:58:06.446Z,21.28
2016-07-26T02:59:06.474Z,21.31
2016-07-26T03:00:06.501Z,21.43
2016-07-26T03:01:06.532Z,21.47
2016-07-26T03:02:06.560Z,21.46
2016-07-26T03:03:06.590Z,21.35
2016-07-26T03:04:06.618Z,21.38
2016-07-26T03:05:06.647Z,21.46
2016-07-26T03:06:06.668Z,21.38
2016-07-26T03:07:06.714Z,21.43
2016-07-26T03:08:06.730Z,21.35
2016-07-26T03:09:06.755Z,21.38
2016-07-26T03:10:06.790Z,21.24
2016-07-26T03:11:06.815Z,21.22
2016-07-26T03:12:21.762Z,21.31
2016-07-26T03:13:21.792Z,21.28
2016-07-26T03:14:06.898Z,21.32
2016-07-26T03:15:06.924Z,21.31
2016-07-26T03:16:06.952Z,21.29
2016-07-26T03:17:06.984Z,21.35
2016-07-26T03:18:07.011Z,21.32
2016-07-26T03:19:07.036Z,21.42
2016-07-26T03:20:07.062Z,21.44
2016-07-26T03:21:07.093Z,21.32
2016-07-26T03:22:07.120Z,21.43
2016-07-26T03:23:07.152Z,21.4
2016-07-26T03:24:22.107Z,21.42
2016-07-26T03:25:22.131Z,21.44
2016-07-26T03:26:07.231Z,21.5
2016-07-26T03:27:07.263Z,21.47
2016-07-26T03:28:22.213Z,21.46
2016-07-26T03:29:07.319Z,21.43
2016-07-26T03:30:07.343Z,21.56
2016-07-26T03:31:07.374Z,21.53
2016-07-26T03:32:07.408Z,21.62
2016-07-26T03:33:07.429Z,21.62
2016-07-26T03:34:07.460Z,21.74
2016-07-26T03:35:07.489Z,21.71
2016-07-26T03:36:07.933Z,21.86
2016-07-26T03:37:07.544Z,21.83
2016-07-26T03:38:07.574Z,21.9
2016-07-26T03:39:07.598Z,21.96
2016-07-26T03:40:07.626Z,21.99
2016-07-26T03:41:07.653Z,21.98
2016-07-26T03:43:07.715Z,22.03
2016-07-26T03:44:22.667Z,22.12
2016-07-26T03:45:07.772Z,22.1
2016-07-26T03:46:07.801Z,22.12
2016-07-26T03:47:07.820Z,22.2
2016-07-26T03:48:07.853Z,22.05
2016-07-26T03:49:07.876Z,22.12
2016-07-26T03:50:07.905Z,21.96
2016-07-26T03:51:07.938Z,21.99
2016-07-26T03:52:07.964Z,22.02
2016-07-26T03:53:07.993Z,22.05
2016-07-26T03:54:08.074Z,22.02
2016-07-26T03:55:08.058Z,22.07
2016-07-26T03:56:23.006Z,21.99
2016-07-26T03:57:08.103Z,21.91
2016-07-26T03:58:08.135Z,21.94
2016-07-26T03:59:08.171Z,21.84
2016-07-26T04:00:23.113Z,21.92
2016-07-26T04:01:08.219Z,21.86
2016-07-26T04:02:08.243Z,21.98
2016-07-26T04:03:08.273Z,21.86
2016-07-26T04:04:08.302Z,21.84
2016-07-26T04:05:08.333Z,21.8
2016-07-26T04:06:08.354Z,21.92
2016-07-26T04:07:08.390Z,21.9
2016-07-26T04:08:08.416Z,21.88
2016-07-26T04:09:08.441Z,21.92
2016-07-26T04:10:08.468Z,21.96
2016-07-26T04:11:08.499Z,21.98
2016-07-26T04:12:08.527Z,22
2016-07-26T04:13:23.490Z,21.98
2016-07-26T04:14:08.585Z,22.06
2016-07-26T04:15:23.533Z,22.03
2016-07-26T04:16:08.644Z,22.02
2016-07-26T04:18:08.697Z,21.96
2016-07-26T04:19:08.728Z,21.99
2016-07-26T04:20:08.754Z,22.02
2016-07-26T04:21:08.777Z,22
2016-07-26T04:22:08.811Z,22.06
2016-07-26T04:23:08.833Z,22.02
2016-07-26T04:24:08.865Z,22.09
2016-07-26T04:25:08.896Z,22.02
2016-07-26T04:26:08.923Z,22
2016-07-26T04:27:08.946Z,21.98
2016-07-26T04:28:08.975Z,21.99
2016-07-26T04:29:09.005Z,21.91
2016-07-26T04:30:09.035Z,21.9
2016-07-26T04:31:09.065Z,21.88
2016-07-26T04:32:09.090Z,21.91
2016-07-26T04:33:09.116Z,21.98
2016-07-26T04:34:09.151Z,22
2016-07-26T04:35:09.175Z,22.06
2016-07-26T04:36:09.254Z,22.1
2016-07-26T04:37:09.231Z,22.09
2016-07-26T04:38:09.266Z,22.12
2016-07-26T04:39:09.286Z,21.99
2016-07-26T04:40:09.317Z,21.96
2016-07-26T04:41:09.341Z,21.84
2016-07-26T04:42:09.368Z,21.9
2016-07-26T04:43:09.402Z,21.92
2016-07-26T04:46:09.490Z,21.99
2016-07-26T04:47:24.437Z,22.02
2016-07-26T04:48:09.545Z,22.12
2016-07-26T04:49:09.572Z,22.02
2016-07-26T04:50:09.597Z,22.18
2016-07-26T04:51:09.625Z,22.09
2016-07-26T04:52:09.651Z,22.17
2016-07-26T04:53:09.679Z,22.33
2016-07-26T04:54:09.713Z,22.47
2016-07-26T04:55:09.787Z,22.58
2016-07-26T04:56:09.767Z,22.72
2016-07-26T04:57:09.793Z,22.97
2016-07-26T04:58:09.822Z,23.13
2016-07-26T04:59:09.857Z,23.33
2016-07-26T05:00:09.888Z,23.6
2016-07-26T05:01:24.838Z,23.76
2016-07-26T05:02:09.933Z,24
2016-07-26T05:03:24.895Z,24.43
2016-07-26T05:04:09.999Z,24.64
2016-07-26T05:05:24.949Z,25.2
2016-07-26T05:06:10.054Z,25.3
2016-07-26T05:07:10.082Z,25.5
2016-07-26T05:08:10.127Z,25.9
2016-07-26T05:09:10.138Z,26.18
2016-07-26T05:10:10.174Z,26.18
2016-07-26T05:11:10.209Z,26.45
2016-07-26T05:12:10.231Z,26.75
2016-07-26T05:13:10.283Z,27.03
2016-07-26T05:14:10.293Z,27.39
2016-07-26T05:15:10.329Z,27.36
2016-07-26T05:16:10.359Z,27.34
2016-07-26T05:20:10.476Z,27.66
2016-07-26T05:21:10.510Z,27.66
2016-07-26T05:22:10.546Z,27.66
2016-07-26T05:23:10.574Z,27.74
2016-07-26T05:24:10.609Z,27.7
2016-07-26T05:25:10.633Z,27.99
2016-07-26T05:26:10.668Z,28.06
2016-07-26T05:27:10.703Z,27.66
2016-07-26T05:28:10.741Z,27.57
2016-07-26T05:29:10.768Z,27.87
2016-07-26T05:30:10.803Z,28.33
2016-07-26T05:31:10.830Z,28.52
2016-07-26T05:33:10.905Z,28.7
2016-07-26T05:34:10.940Z,28.92
2016-07-26T05:35:25.887Z,28.55
2016-07-26T05:36:25.923Z,28.33
2016-07-26T05:37:11.029Z,28.62
2016-07-26T05:38:11.064Z,29.28
2016-07-26T05:39:11.095Z,29.76
2016-07-26T05:40:11.128Z,30.1
2016-07-26T05:41:11.158Z,30.08
2016-07-26T05:42:11.184Z,30.54
2016-07-26T05:43:11.220Z,30.76
2016-07-26T05:44:11.260Z,30.89
2016-07-26T05:45:11.288Z,30.77
2016-07-26T05:46:11.324Z,30.86
2016-07-26T05:47:11.356Z,30.82
2016-07-26T05:48:11.393Z,30.58
2016-07-26T05:50:26.380Z,30.32
2016-07-26T05:51:26.416Z,30.67
2016-07-26T05:52:11.575Z,31.16
2016-07-26T05:53:11.551Z,31.43
2016-07-26T05:54:11.593Z,31.62
2016-07-26T05:55:11.628Z,31.78
2016-07-26T05:56:11.701Z,31.61
2016-07-26T05:57:11.691Z,31.66
2016-07-26T05:58:11.722Z,31.92
2016-07-26T05:59:11.760Z,32.48
2016-07-26T06:00:11.799Z,32.21
2016-07-26T06:01:11.869Z,31.95
2016-07-26T06:02:39.532Z,32.14
2016-07-26T06:03:11.904Z,32.26
2016-07-26T06:04:11.938Z,31.95
2016-07-26T06:05:11.976Z,31.8
2016-07-26T06:06:12.003Z,31.76
2016-07-26T06:07:12.036Z,32.15
2016-07-26T06:08:12.071Z,31.46
2016-07-26T06:09:12.124Z,30.69
2016-07-26T06:10:12.138Z,30.53
2016-07-26T06:11:12.166Z,30.02
2016-07-26T06:12:12.211Z,30.54
2016-07-26T06:13:12.238Z,31.16
2016-07-26T06:15:12.308Z,31.07
2016-07-26T06:16:12.340Z,30.1
2016-07-26T06:17:12.379Z,30.07
2016-07-26T06:18:12.409Z,30.05
2016-07-26T06:19:12.446Z,30.64
2016-07-26T06:20:12.471Z,31.14
2016-07-26T06:21:12.509Z,31.35
2016-07-26T06:22:27.473Z,31.76
2016-07-26T06:23:12.574Z,32.18
2016-07-26T06:24:12.612Z,31.75
2016-07-26T06:25:12.645Z,31.53
2016-07-26T06:26:12.685Z,30.75
2016-07-26T06:27:12.719Z,29.98
2016-07-26T06:28:12.750Z,29.26
2016-07-26T06:29:12.778Z,29.11
2016-07-26T06:30:12.815Z,28.78
2016-07-26T06:31:27.773Z,28.78
2016-07-26T06:32:12.880Z,29.24
2016-07-26T06:33:12.929Z,29.87
2016-07-26T06:35:12.982Z,31.02
2016-07-26T06:36:27.937Z,30.67
2016-07-26T06:37:13.047Z,30.64
2016-07-26T06:38:28.005Z,30.15
2016-07-26T06:40:13.147Z,29.39
2016-07-26T06:41:13.178Z,29.09
2016-07-26T06:42:13.219Z,28.93
2016-07-26T06:43:13.249Z,28.59
2016-07-26T06:46:13.365Z,28.81
2016-07-26T06:47:28.309Z,29.71
2016-07-26T06:49:13.453Z,30.75
2016-07-26T06:50:13.482Z,31.31
2016-07-26T06:51:13.521Z,31.12
2016-07-26T06:53:13.601Z,31.43
2016-07-26T06:54:28.591Z,31.16
2016-07-26T06:55:13.654Z,30.76
2016-07-26T06:56:13.690Z,30.7
2016-07-26T06:57:13.720Z,30.45
2016-07-26T06:58:13.760Z,30.43
2016-07-26T06:59:13.784Z,30.54
2016-07-26T07:00:13.815Z,30.58
2016-07-26T07:01:13.850Z,30.57
2016-07-26T07:02:13.884Z,30.46
2016-07-26T07:03:13.918Z,30.27
2016-07-26T07:04:13.950Z,30.13
2016-07-26T07:05:13.984Z,29.92
2016-07-26T07:06:28.940Z,29.89
2016-07-26T07:07:14.057Z,29.92
2016-07-26T07:08:14.082Z,29.63
2016-07-26T07:09:14.116Z,29.68
2016-07-26T07:10:29.081Z,29.68
2016-07-26T07:11:14.181Z,29.68
2016-07-26T07:12:14.219Z,29.85
2016-07-26T07:13:14.247Z,30.01
2016-07-26T07:14:14.279Z,30.15
2016-07-26T07:15:14.322Z,30.04
2016-07-26T07:16:14.343Z,30.15
2016-07-26T07:18:14.415Z,29.86
2016-07-26T07:19:14.453Z,29.55
2016-07-26T07:20:14.475Z,29.61
2016-07-26T07:21:14.521Z,29.34
2016-07-26T07:22:14.558Z,29.23
2016-07-26T07:23:14.580Z,29.58
2016-07-26T07:24:14.612Z,29.85
2016-07-26T07:25:29.570Z,30.1
2016-07-26T07:26:14.682Z,30.49
2016-07-26T07:27:14.713Z,30.67
2016-07-26T07:28:14.747Z,31.1
2016-07-26T07:29:14.778Z,31.48
2016-07-26T07:30:14.809Z,31.76
2016-07-26T07:31:14.847Z,31.68
2016-07-26T07:32:14.874Z,31.48
2016-07-26T07:33:14.908Z,31.76
2016-07-26T07:34:14.939Z,31.7
2016-07-26T07:35:14.977Z,31.88
2016-07-26T07:36:29.933Z,32.11
2016-07-26T07:37:29.966Z,31.99
2016-07-26T07:38:15.074Z,31.99
2016-07-26T07:39:15.111Z,32.13
2016-07-26T07:40:15.146Z,32.69
2016-07-26T07:41:15.175Z,32.37
2016-07-26T07:42:15.211Z,32.41
2016-07-26T07:43:15.244Z,32.19
2016-07-26T07:44:15.277Z,31.91
2016-07-26T07:45:15.314Z,31.95
2016-07-26T07:46:15.343Z,31.84
2016-07-26T07:47:15.372Z,31.7
2016-07-26T07:48:15.413Z,31.44
2016-07-26T07:49:15.444Z,31.07
2016-07-26T07:50:15.479Z,31.02
2016-07-26T07:51:15.515Z,30.92
2016-07-26T07:52:15.549Z,30.82
2016-07-26T07:53:15.577Z,31.02
2016-07-26T07:54:15.607Z,31.29
2016-07-26T07:55:15.647Z,31.28
2016-07-26T07:56:15.676Z,31.34
2016-07-26T07:57:30.636Z,30.92
2016-07-26T07:59:15.773Z,31.36
2016-07-26T08:00:15.813Z,31.36
2016-07-26T08:01:15.894Z,31.14
2016-07-26T08:02:15.877Z,31.21
2016-07-26T08:03:15.907Z,31.48
2016-07-26T08:04:15.947Z,31.56
2016-07-26T08:05:16.027Z,31.63
2016-07-26T08:06:16.009Z,31.81
2016-07-26T08:07:16.044Z,31.78
2016-07-26T08:08:16.076Z,31.02
2016-07-26T08:09:31.031Z,30.95
2016-07-26T08:10:16.839Z,31.1
2016-07-26T08:11:16.181Z,30.84
2016-07-26T08:12:16.203Z,30.92
2016-07-26T08:13:31.864Z,31.09
2016-07-26T08:14:16.276Z,31.35
2016-07-26T08:15:16.309Z,31.36
2016-07-26T08:17:16.378Z,31.89
2016-07-26T08:18:16.405Z,31.72
2016-07-26T08:19:16.439Z,31.29
2016-07-26T08:20:16.474Z,30.69
2016-07-26T08:21:16.504Z,30.32
2016-07-26T08:22:16.540Z,30.45
2016-07-26T08:23:16.564Z,30.37
2016-07-26T08:24:16.606Z,30.26
2016-07-26T08:26:16.672Z,30.8
2016-07-26T08:27:16.702Z,31.04
2016-07-26T08:28:16.741Z,30.73
2016-07-26T08:29:31.692Z,30.94
2016-07-26T08:30:16.803Z,31.17
2016-07-26T08:31:16.829Z,31.65
2016-07-26T08:32:16.871Z,31.54
2016-07-26T08:33:16.900Z,31.46
2016-07-26T08:35:16.967Z,31.58
2016-07-26T08:36:17.004Z,31.86
2016-07-26T08:37:17.030Z,31.8
2016-07-26T08:38:31.992Z,31.54
2016-07-26T08:39:17.796Z,31.07
2016-07-26T08:40:17.133Z,31.06
2016-07-26T08:41:17.175Z,31.17
2016-07-26T08:42:17.194Z,30.92
2016-07-26T08:43:17.235Z,31.16
2016-07-26T08:44:17.266Z,31.04
2016-07-26T08:45:32.219Z,31.28
2016-07-26T08:46:17.334Z,31.06
2016-07-26T08:47:17.364Z,30.8
2016-07-26T08:48:17.391Z,31.09
2016-07-26T08:50:17.466Z,31.41
2016-07-26T08:51:17.499Z,31.46
2016-07-26T08:52:17.539Z,31.34
2016-07-26T08:53:17.565Z,30.86
2016-07-26T08:54:17.595Z,30.76
2016-07-26T08:55:32.553Z,30.57
2016-07-26T08:56:17.712Z,30.42
2016-07-26T08:57:17.701Z,30.58
2016-07-26T08:58:17.733Z,30.11
2016-07-26T08:59:17.770Z,30.11
2016-07-26T09:00:32.715Z,30.13
2016-07-26T09:01:17.841Z,30.32
2016-07-26T09:02:17.864Z,30.15
2016-07-26T09:03:17.906Z,30.26
2016-07-26T09:05:18.010Z,30.34
2016-07-26T09:06:18.001Z,30.84
2016-07-26T09:07:18.028Z,31.21
2016-07-26T09:08:18.062Z,31.06
2016-07-26T09:09:18.096Z,31.02
2016-07-26T09:10:18.129Z,31.34
2016-07-26T09:11:18.160Z,31.32
2016-07-26T09:12:18.196Z,31.26
2016-07-26T09:13:33.145Z,31.46
2016-07-26T09:14:18.254Z,31.38
2016-07-26T09:15:18.284Z,31.34
2016-07-26T09:16:18.325Z,31.53
2016-07-26T09:17:18.355Z,31.48
2016-07-26T09:18:18.389Z,30.7
2016-07-26T09:20:18.460Z,30.58
2016-07-26T09:21:18.489Z,30.84
2016-07-26T09:22:18.528Z,30.67
2016-07-26T09:23:18.560Z,30.7
2016-07-26T09:24:18.588Z,30.97
2016-07-26T09:25:18.622Z,31.14
2016-07-26T09:26:18.654Z,30.92
2016-07-26T09:27:18.685Z,30.76
2016-07-26T09:28:33.640Z,30.91
2016-07-26T09:29:18.749Z,31.02
2016-07-26T09:30:18.787Z,31.06
2016-07-26T09:31:18.819Z,30.88
2016-07-26T09:32:33.767Z,31.02
2016-07-26T09:33:18.882Z,31.06
2016-07-26T09:35:18.947Z,30.76
2016-07-26T09:37:19.027Z,30.51
2016-07-26T09:38:19.054Z,30.27
2016-07-26T09:39:19.075Z,30.17
2016-07-26T09:41:19.140Z,30.16
2016-07-26T09:42:19.174Z,30.11
2016-07-26T09:43:19.210Z,29.67
2016-07-26T09:44:34.162Z,29.45
2016-07-26T09:45:19.288Z,29.51
2016-07-26T09:46:19.310Z,29.48
2016-07-26T09:47:19.339Z,29.26
2016-07-26T09:48:34.297Z,29.45
2016-07-26T09:50:19.436Z,29.11
2016-07-26T09:51:34.401Z,29.23
2016-07-26T09:53:19.535Z,28.81
2016-07-26T09:54:19.561Z,29.12
2016-07-26T09:55:34.525Z,29.26
2016-07-26T09:56:19.629Z,29.05
2016-07-26T09:57:19.666Z,29.16
2016-07-26T09:58:19.699Z,29.12
2016-07-26T09:59:19.726Z,29.33
2016-07-26T10:00:19.763Z,29.18
2016-07-26T10:01:19.791Z,29.31
2016-07-26T10:02:19.820Z,29.33
2016-07-26T10:03:19.859Z,28.85
2016-07-26T10:04:34.810Z,29.16
2016-07-26T10:05:19.927Z,29.09
2016-07-26T10:06:19.960Z,29.27
2016-07-26T10:07:19.986Z,29.31
2016-07-26T10:08:20.018Z,29.28
2016-07-26T10:09:20.103Z,29.53
2016-07-26T10:10:20.085Z,29.52
2016-07-26T10:11:20.117Z,29.87
2016-07-26T10:12:20.148Z,30.1
2016-07-26T10:13:20.175Z,30.31
2016-07-26T10:14:20.214Z,30.76
2016-07-26T10:15:20.244Z,30.61
2016-07-26T10:16:20.280Z,30.31
2016-07-26T10:17:20.308Z,30.35
2016-07-26T10:18:20.347Z,30.24
2016-07-26T10:20:35.329Z,30.26
2016-07-26T10:21:20.438Z,30.31
2016-07-26T10:22:20.483Z,30.16
2016-07-26T10:23:20.499Z,30.32
2016-07-26T10:24:20.549Z,30.53
2016-07-26T10:25:20.568Z,30.64
2016-07-26T10:27:20.627Z,30.62
2016-07-26T10:28:35.587Z,30.77
2016-07-26T10:29:35.616Z,30.47
2016-07-26T10:30:35.648Z,30.55
2016-07-26T10:31:20.761Z,30.82
2016-07-26T10:32:20.798Z,31.36
2016-07-26T10:33:20.826Z,31.56
2016-07-26T10:35:35.811Z,31.57
2016-07-26T10:36:20.921Z,31.7
2016-07-26T10:37:20.959Z,31.54
2016-07-26T10:38:20.991Z,31.53
2016-07-26T10:39:21.028Z,31.5
2016-07-26T10:40:21.063Z,31.23
2016-07-26T10:42:21.115Z,31.36
2016-07-26T10:43:36.076Z,31.48
2016-07-26T10:44:21.177Z,31.35
2016-07-26T10:45:21.220Z,31.34
2016-07-26T10:46:21.244Z,31.44
2016-07-26T10:47:36.206Z,31.46
2016-07-26T10:48:21.316Z,31.38
2016-07-26T10:50:21.388Z,31.63
2016-07-26T10:51:21.407Z,31.58
2016-07-26T10:53:21.476Z,31.53
2016-07-26T10:54:21.513Z,31.72
2016-07-26T10:55:21.536Z,31.53
2016-07-26T10:56:21.572Z,31.73
2016-07-26T10:57:21.605Z,31.73
2016-07-26T10:58:21.639Z,31.39
2016-07-26T10:59:21.672Z,31.34
2016-07-26T11:00:34.442Z,31.12
2016-07-26T11:01:36.659Z,30.65
2016-07-26T11:02:21.776Z,30.55
2016-07-26T11:03:21.807Z,30.72
2016-07-26T11:05:21.871Z,30.97
2016-07-26T11:06:21.899Z,30.46
2016-07-26T11:07:36.850Z,30.13
2016-07-26T11:08:21.965Z,30.11
2016-07-26T11:09:21.995Z,29.97
2016-07-26T11:10:22.028Z,30.32
2016-07-26T11:11:22.112Z,30.57
2016-07-26T11:12:22.094Z,30.73
2016-07-26T11:13:22.133Z,30.8
2016-07-26T11:14:22.156Z,30.8
2016-07-26T11:15:22.189Z,30.43
2016-07-26T11:16:37.146Z,30.43
2016-07-26T11:17:22.254Z,30.58
2016-07-26T11:18:22.290Z,30.53
2016-07-26T11:21:22.377Z,30.23
2016-07-26T11:22:37.334Z,30.08
2016-07-26T11:23:37.370Z,30.37
2016-07-26T11:24:22.474Z,30.29
2016-07-26T11:25:22.512Z,30.47
2016-07-26T11:26:22.543Z,30.31
2016-07-26T11:27:22.583Z,30.1
2016-07-26T11:28:22.607Z,29.82
2016-07-26T11:29:22.636Z,30.13
2016-07-26T11:30:22.678Z,30.1
2016-07-26T11:31:22.753Z,30.04
2016-07-26T11:32:37.661Z,29.67
2016-07-26T11:33:22.780Z,29.83
2016-07-26T11:35:22.843Z,30.51
2016-07-26T11:37:22.904Z,30.84
2016-07-26T11:38:22.935Z,30.79
2016-07-26T11:39:37.886Z,30.69
2016-07-26T11:40:23.001Z,30.46
2016-07-26T11:41:23.027Z,30.62
2016-07-26T11:42:23.063Z,30.76
2016-07-26T11:43:23.102Z,31.2
2016-07-26T11:44:23.122Z,31.25
2016-07-26T11:45:23.161Z,31.1
2016-07-26T11:46:23.193Z,31.04
2016-07-26T11:47:23.226Z,31.29
2016-07-26T11:48:38.175Z,31.51
2016-07-26T11:50:23.314Z,31.2
2016-07-26T11:51:38.274Z,31.35
2016-07-26T11:52:23.386Z,31.41
2016-07-26T11:53:23.411Z,31.21
2016-07-26T11:54:23.451Z,31.28
2016-07-26T11:55:38.404Z,31.46
2016-07-26T11:56:23.526Z,31.48
2016-07-26T11:57:23.541Z,31.76
2016-07-26T11:58:23.575Z,31.72
2016-07-26T11:59:23.613Z,31.92
2016-07-26T12:00:23.636Z,31.65
2016-07-26T12:01:23.681Z,31.35
2016-07-26T12:02:23.708Z,31.46
2016-07-26T12:03:23.742Z,31.29
2016-07-26T12:05:23.805Z,31.53
2016-07-26T12:06:23.842Z,31.31
2016-07-26T12:07:23.871Z,31.36
2016-07-26T12:08:23.902Z,31.43
2016-07-26T12:09:23.933Z,31.61
2016-07-26T12:10:38.892Z,31.89
2016-07-26T12:11:24.002Z,31.84
2016-07-26T12:12:24.046Z,32.06
2016-07-26T12:13:24.072Z,32.14
2016-07-26T12:14:24.097Z,31.92
2016-07-26T12:15:24.134Z,31.91
2016-07-26T12:16:24.164Z,31.95
2016-07-26T12:17:24.202Z,31.75
2016-07-26T12:18:24.232Z,31.8
2016-07-26T12:20:24.295Z,31.63
2016-07-26T12:21:24.322Z,31.57
2016-07-26T12:22:24.363Z,31.17
2016-07-26T12:23:24.392Z,30.94
2016-07-26T12:24:24.423Z,31.04
2016-07-26T12:25:24.459Z,31.17
2016-07-26T12:26:24.483Z,31.16
2016-07-26T12:27:24.523Z,31.04
2016-07-26T12:28:24.553Z,30.86
2016-07-26T12:29:24.584Z,30.89
2016-07-26T12:30:24.617Z,31.13
2016-07-26T12:31:24.649Z,31.35
2016-07-26T12:32:24.685Z,31.43
2016-07-26T12:33:24.711Z,31.57
2016-07-26T12:35:24.777Z,32.35
2016-07-26T12:36:24.810Z,32.33
2016-07-26T12:37:24.850Z,32.47
2016-07-26T12:38:39.797Z,32.28
2016-07-26T12:39:24.910Z,32.22
2016-07-26T12:40:24.945Z,32.01
2016-07-26T12:41:24.978Z,31.57
2016-07-26T12:42:39.923Z,31.54
2016-07-26T12:44:25.073Z,31.31
2016-07-26T12:45:25.105Z,31.14
2016-07-26T12:47:25.163Z,30.92
2016-07-26T12:48:25.199Z,30.76
2016-07-26T12:50:25.279Z,30.79
2016-07-26T12:51:25.290Z,30.69
2016-07-26T12:52:25.344Z,30.79
2016-07-26T12:53:25.358Z,30.58
2016-07-26T12:54:25.392Z,30.79
2016-07-26T12:55:25.432Z,30.83
2016-07-26T12:56:25.463Z,31.04
2016-07-26T12:57:25.495Z,31.2
2016-07-26T12:58:40.449Z,31.12
2016-07-26T12:59:25.556Z,31.28
2016-07-26T13:02:25.656Z,30.8
2016-07-26T13:03:25.682Z,30.94
2016-07-26T13:04:27.368Z,30.98
2016-07-26T13:05:25.749Z,31.07
2016-07-26T13:07:40.735Z,31.5
2016-07-26T13:08:25.842Z,31.58
2016-07-26T13:09:25.884Z,31.75
2016-07-26T13:10:25.904Z,31.62
2016-07-26T13:11:25.944Z,31.91
2016-07-26T13:12:25.976Z,31.8
2016-07-26T13:13:26.062Z,31.66
2016-07-26T13:14:40.961Z,31.58
2016-07-26T13:15:26.071Z,31.61
2016-07-26T13:16:26.101Z,31.48
2016-07-26T13:17:26.837Z,31.44
2016-07-26T13:18:26.219Z,31.23
2016-07-26T13:21:26.263Z,31.07
2016-07-26T13:23:26.335Z,31.34
2016-07-26T13:24:26.361Z,31.19
2016-07-26T13:25:26.394Z,31.02
2016-07-26T13:26:41.346Z,31.06
2016-07-26T13:27:26.459Z,30.91
2016-07-26T13:28:26.489Z,30.84
2016-07-26T13:29:26.523Z,30.77
2016-07-26T13:30:41.477Z,30.75
2016-07-26T13:31:26.596Z,30.54
2016-07-26T13:32:26.626Z,30.53
2016-07-26T13:35:26.720Z,30.13
2016-07-26T13:36:26.751Z,30.11
2016-07-26T13:37:26.783Z,29.98
2016-07-26T13:38:26.816Z,30.05
2016-07-26T13:39:41.773Z,30.13
2016-07-26T13:40:26.874Z,30.16
2016-07-26T13:41:41.841Z,30.04
2016-07-26T13:42:26.945Z,30.24
2016-07-26T13:43:26.981Z,30.35
2016-07-26T13:44:27.014Z,30.27
2016-07-26T13:45:41.966Z,30.42
2016-07-26T13:46:27.075Z,30.17
2016-07-26T13:47:27.104Z,30.32
2016-07-26T13:48:27.134Z,30.57
2016-07-26T13:49:28.001Z,30.35
2016-07-26T13:50:27.195Z,30.13
2016-07-26T13:52:27.271Z,30.26
2016-07-26T13:53:27.298Z,30.55
2016-07-26T13:54:27.331Z,30.64
2016-07-26T13:55:27.367Z,30.64
2016-07-26T13:56:27.393Z,30.58
2016-07-26T13:57:27.427Z,30.73
2016-07-26T13:58:27.458Z,30.76
2016-07-26T13:59:27.490Z,30.77
2016-07-26T14:00:27.523Z,30.62
2016-07-26T14:01:27.550Z,30.92
2016-07-26T14:02:27.588Z,31.2